createdAt,value
2018-12-08T00:02:21.933Z,6.80
2018-12-08T00:04:56.654Z,6.80
2018-12-08T00:07:30.813Z,6.70
2018-12-08T00:10:05.088Z,6.60
2018-12-08T00:12:39.817Z,6.50
2018-12-08T00:17:48.139Z,6.50
2018-12-08T00:20:22.240Z,6.50
2018-12-08T00:22:58.274Z,6.50
2018-12-08T00:38:13.718Z,6.40
2018-12-08T00:40:48.315Z,6.40
2018-12-08T00:43:19.610Z,6.40
2018-12-08T00:45:54.449Z,6.40
2018-12-08T00:58:38.873Z,6.20
2018-12-08T01:01:13.220Z,6.20
2018-12-08T01:03:48.064Z,6.30
2018-12-08T01:06:22.802Z,6.20
2018-12-08T01:08:56.827Z,6.20
2018-12-08T01:11:31.566Z,6.20
2018-12-08T01:14:05.598Z,6.20
2018-12-08T01:16:39.641Z,6.30
2018-12-08T01:19:10.266Z,6.20
2018-12-08T01:21:45.347Z,6.20
2018-12-08T01:31:59.746Z,6.40
2018-12-08T01:34:33.761Z,6.30
2018-12-08T01:37:08.565Z,6.30
2018-12-08T01:39:42.589Z,6.30
2018-12-08T01:42:17.444Z,6.20
2018-12-08T01:44:51.549Z,6.20
2018-12-08T01:50:00.577Z,6.20
2018-12-08T01:52:31.729Z,6.20
2018-12-08T02:15:24.433Z,6.00
2018-12-08T02:17:58.342Z,6.10
2018-12-08T02:20:32.810Z,6.00
2018-12-08T02:23:08.690Z,5.90
2018-12-08T02:25:42.825Z,5.90
2018-12-08T02:28:17.739Z,5.90
2018-12-08T02:30:51.740Z,5.90
2018-12-08T02:33:28.628Z,5.90
2018-12-08T02:36:02.540Z,6.00
2018-12-08T02:38:36.570Z,6.00
2018-12-08T02:41:10.602Z,6.00
2018-12-08T02:43:44.540Z,6.00
2018-12-08T02:46:16.545Z,6.00
2018-12-08T02:48:50.909Z,6.00
2018-12-08T02:51:24.970Z,6.10
2018-12-08T02:53:59.496Z,6.20
2018-12-08T02:56:29.536Z,6.20
2018-12-08T02:59:03.536Z,6.30
2018-12-08T03:01:37.634Z,6.30
2018-12-08T03:04:11.649Z,6.30
2018-12-08T03:06:45.981Z,6.30
2018-12-08T03:09:20.226Z,6.30
2018-12-08T03:11:54.177Z,6.20
2018-12-08T03:14:28.198Z,6.20
2018-12-08T03:17:02.135Z,6.20
2018-12-08T03:19:32.294Z,6.20
2018-12-08T03:22:06.329Z,6.20
2018-12-08T03:24:37.144Z,6.20
2018-12-08T03:27:11.953Z,6.10
2018-12-08T03:29:45.861Z,6.00
2018-12-08T03:32:19.914Z,5.90
2018-12-08T03:34:54.717Z,5.80
2018-12-08T03:37:28.646Z,5.80
2018-12-08T03:40:03.206Z,5.70
2018-12-08T03:42:33.716Z,5.70
2018-12-08T03:45:07.713Z,5.70
2018-12-08T03:47:41.777Z,5.60
2018-12-08T03:50:16.514Z,5.50
2018-12-08T03:52:51.197Z,5.30
2018-12-08T03:58:00.243Z,5.40
2018-12-08T04:00:35.013Z,5.20
2018-12-08T04:03:09.319Z,5.20
2018-12-08T04:05:44.065Z,5.10
2018-12-08T04:08:18.714Z,5.10
2018-12-08T04:10:52.882Z,5.20
2018-12-08T04:13:27.015Z,5.20
2018-12-08T04:16:01.186Z,5.20
2018-12-08T04:18:36.131Z,5.20
2018-12-08T04:21:10.101Z,5.10
2018-12-08T04:23:44.280Z,5.10
2018-12-08T04:26:19.175Z,4.90
2018-12-08T04:31:29.091Z,4.70
2018-12-08T04:34:03.764Z,4.70
2018-12-08T04:36:38.649Z,4.60
2018-12-08T04:41:47.847Z,4.50
2018-12-08T04:44:22.497Z,4.60
2018-12-08T04:46:57.566Z,4.70
2018-12-08T04:49:31.638Z,4.80
2018-12-08T04:52:07.671Z,5.00
2018-12-08T04:54:41.629Z,5.10
2018-12-08T04:57:11.639Z,5.10
2018-12-08T04:59:45.565Z,5.10
2018-12-08T05:02:19.495Z,5.10
2018-12-08T05:04:53.637Z,5.10
2018-12-08T05:07:28.525Z,5.00
2018-12-08T05:10:03.093Z,5.00
2018-12-08T05:12:39.770Z,4.90
2018-12-08T05:15:14.445Z,5.00
2018-12-08T05:17:48.410Z,5.00
2018-12-08T05:20:22.545Z,5.10
2018-12-08T05:22:57.302Z,5.10
2018-12-08T05:25:31.291Z,5.10
2018-12-08T05:28:05.301Z,5.10
2018-12-08T05:30:39.257Z,5.10
2018-12-08T05:33:14.375Z,5.10
2018-12-08T05:35:49.225Z,5.00
2018-12-08T05:38:20.053Z,5.00
2018-12-08T05:40:53.985Z,5.10
2018-12-08T05:43:30.024Z,5.10
2018-12-08T05:48:39.045Z,5.30
2018-12-08T05:51:13.085Z,5.20
2018-12-08T05:53:47.310Z,5.20
2018-12-08T05:56:21.381Z,5.20
2018-12-08T05:58:55.481Z,5.20
2018-12-08T06:01:29.627Z,5.30
2018-12-08T06:04:03.540Z,5.20
2018-12-08T06:06:37.580Z,5.20
2018-12-08T06:09:12.476Z,5.20
2018-12-08T06:11:46.475Z,5.20
2018-12-08T06:14:21.077Z,5.20
2018-12-08T06:16:55.020Z,5.20
2018-12-08T06:19:29.829Z,5.20
2018-12-08T06:22:03.729Z,5.10
2018-12-08T06:24:37.850Z,5.00
2018-12-08T06:27:12.687Z,5.10
2018-12-08T06:29:46.620Z,5.20
2018-12-08T06:32:20.705Z,5.20
2018-12-08T06:34:54.718Z,5.20
2018-12-08T06:37:28.733Z,5.20
2018-12-08T06:39:59.454Z,5.20
2018-12-08T06:42:33.521Z,5.20
2018-12-08T06:45:08.294Z,5.20
2018-12-08T06:47:43.119Z,5.30
2018-12-08T06:50:17.934Z,5.30
2018-12-08T06:52:52.888Z,5.30
2018-12-08T06:55:26.830Z,5.30
2018-12-08T06:57:57.441Z,5.30
2018-12-08T07:00:31.505Z,5.30
2018-12-08T07:03:06.421Z,5.30
2018-12-08T07:05:40.934Z,5.40
2018-12-08T07:08:15.063Z,5.30
2018-12-08T07:10:49.911Z,5.30
2018-12-08T07:13:20.669Z,5.40
2018-12-08T07:15:55.510Z,5.40
2018-12-08T07:18:29.545Z,5.40
2018-12-08T07:21:00.361Z,5.40
2018-12-08T07:23:35.186Z,5.40
2018-12-08T07:26:09.299Z,5.40
2018-12-08T07:28:44.018Z,5.50
2018-12-08T07:31:18.216Z,5.50
2018-12-08T07:33:52.869Z,5.50
2018-12-08T07:36:26.798Z,5.50
2018-12-08T07:39:01.313Z,5.50
2018-12-08T07:41:37.233Z,5.60
2018-12-08T07:44:08.037Z,5.50
2018-12-08T07:46:41.960Z,5.50
2018-12-08T07:49:16.115Z,5.50
2018-12-08T07:51:51.124Z,5.50
2018-12-08T07:54:25.937Z,5.60
2018-12-08T07:56:59.936Z,5.60
2018-12-08T08:04:39.605Z,5.70
2018-12-08T08:07:13.637Z,5.70
2018-12-08T08:09:47.653Z,5.70
2018-12-08T08:12:23.514Z,5.70
2018-12-08T08:14:57.445Z,5.60
2018-12-08T08:17:31.358Z,5.60
2018-12-08T08:20:06.078Z,5.50
2018-12-08T08:22:41.713Z,5.60
2018-12-08T08:35:20.925Z,5.50
2018-12-08T08:37:55.484Z,5.60
2018-12-08T08:40:30.195Z,5.60
2018-12-08T08:45:31.829Z,5.60
2018-12-08T08:48:05.993Z,5.60
2018-12-08T08:50:39.918Z,5.70
2018-12-08T08:55:50.581Z,5.90
2018-12-08T08:58:24.689Z,6.00
2018-12-08T09:03:29.896Z,6.10
2018-12-08T09:11:08.865Z,6.40
2018-12-08T09:16:19.002Z,6.40
2018-12-08T09:18:52.922Z,6.30
2018-12-08T09:21:27.767Z,6.20
2018-12-08T09:26:36.581Z,5.90
2018-12-08T09:29:10.502Z,5.90
2018-12-08T09:31:45.380Z,5.90
2018-12-08T09:34:19.386Z,5.90
2018-12-08T09:36:53.437Z,6.00
2018-12-08T09:39:28.264Z,6.00
2018-12-08T09:42:04.166Z,6.00
2018-12-08T09:44:38.568Z,6.10
2018-12-08T09:47:09.402Z,6.20
2018-12-08T09:49:44.209Z,6.20
2018-12-08T09:52:19.177Z,6.20
2018-12-08T09:54:53.113Z,6.20
2018-12-08T09:57:27.142Z,6.20
2018-12-08T10:00:01.162Z,6.10
2018-12-08T10:02:35.109Z,6.20
2018-12-08T10:05:09.886Z,6.20
2018-12-08T10:07:43.936Z,6.20
2018-12-08T10:10:19.276Z,6.00
2018-12-08T10:12:54.228Z,6.00
2018-12-08T10:15:28.254Z,6.00
2018-12-08T10:18:02.181Z,6.00
2018-12-08T10:20:36.181Z,5.90
2018-12-08T10:23:10.407Z,5.80
2018-12-08T10:25:41.127Z,5.90
2018-12-08T10:30:49.753Z,6.30
2018-12-08T10:33:25.906Z,6.30
2018-12-08T10:36:00.527Z,6.30
2018-12-08T10:38:35.346Z,6.30
2018-12-08T10:41:10.169Z,6.20
2018-12-08T10:43:44.297Z,6.10
2018-12-08T10:46:19.134Z,5.90
2018-12-08T10:48:53.866Z,5.90
2018-12-08T11:01:39.757Z,5.50
2018-12-08T11:04:13.698Z,5.40
2018-12-08T11:06:47.677Z,5.40
2018-12-08T11:09:21.826Z,5.50
2018-12-08T11:11:52.746Z,5.50
2018-12-08T11:14:27.586Z,5.60
2018-12-08T11:17:01.485Z,5.60
2018-12-08T11:19:35.598Z,5.60
2018-12-08T11:22:11.581Z,5.60
2018-12-08T11:24:46.417Z,5.60
2018-12-08T11:27:20.557Z,5.60
2018-12-08T11:29:54.686Z,5.70
2018-12-08T11:32:29.581Z,5.60
2018-12-08T11:35:03.525Z,5.60
2018-12-08T11:37:38.409Z,5.50
2018-12-08T11:40:13.227Z,5.40
2018-12-08T11:45:22.165Z,5.30
2018-12-08T11:47:56.266Z,5.40
2018-12-08T11:50:30.300Z,5.30
2018-12-08T11:53:07.076Z,5.30
2018-12-08T11:55:41.061Z,5.20
2018-12-08T11:58:15.917Z,5.20
2018-12-08T12:00:50.629Z,5.10
2018-12-08T12:03:27.244Z,5.10
2018-12-08T12:06:01.515Z,5.20
2018-12-08T12:08:36.469Z,5.20
2018-12-08T12:11:11.571Z,5.20
2018-12-08T12:13:46.383Z,5.20
2018-12-08T12:16:20.341Z,5.30
2018-12-08T12:18:54.928Z,5.30
2018-12-08T12:21:29.614Z,5.40
2018-12-08T12:24:03.578Z,5.30
2018-12-08T12:26:37.553Z,5.40
2018-12-08T12:29:12.302Z,5.40
2018-12-08T12:31:48.010Z,5.40
2018-12-08T12:34:22.758Z,5.40
2018-12-08T12:36:56.693Z,5.60
2018-12-08T12:39:30.730Z,5.60
2018-12-08T12:42:05.858Z,5.60
2018-12-08T12:44:40.691Z,5.60
2018-12-08T12:47:15.461Z,5.60
2018-12-08T12:49:49.439Z,5.70
2018-12-08T12:52:24.277Z,5.70
2018-12-08T12:54:58.362Z,5.60
2018-12-08T12:57:33.174Z,5.70
2018-12-08T13:00:09.190Z,5.70
2018-12-08T13:02:43.997Z,5.70
2018-12-08T13:05:18.063Z,5.70
2018-12-08T13:07:51.986Z,5.70
2018-12-08T13:10:26.858Z,5.70
2018-12-08T13:13:01.762Z,5.70
2018-12-08T13:15:35.853Z,5.70
2018-12-08T13:18:06.617Z,5.70
2018-12-08T13:20:40.761Z,5.80
2018-12-08T13:23:14.769Z,5.90
2018-12-08T13:25:49.393Z,5.80
2018-12-08T13:28:23.470Z,5.80
2018-12-08T13:30:57.422Z,5.90
2018-12-08T13:33:32.221Z,5.90
2018-12-08T13:36:07.810Z,5.80
2018-12-08T13:38:42.238Z,5.90
2018-12-08T13:41:16.149Z,5.90
2018-12-08T13:43:52.128Z,6.00
2018-12-08T13:46:26.226Z,6.00
2018-12-08T13:51:35.009Z,6.10
2018-12-08T13:54:11.673Z,6.10
2018-12-08T13:56:45.808Z,6.00
2018-12-08T13:59:20.610Z,6.00
2018-12-08T14:01:54.636Z,6.10
2018-12-08T14:04:29.450Z,6.10
2018-12-08T14:07:03.745Z,6.30
2018-12-08T14:09:37.947Z,6.30
2018-12-08T14:12:12.877Z,6.30
2018-12-08T14:14:47.705Z,6.30
2018-12-08T14:17:21.762Z,6.40
2018-12-08T14:19:52.578Z,6.30
2018-12-08T14:22:28.673Z,6.40
2018-12-08T14:25:02.601Z,6.30
2018-12-08T14:27:36.692Z,6.30
2018-12-08T14:30:10.837Z,6.20
2018-12-08T14:32:45.882Z,6.30
2018-12-08T14:35:19.909Z,6.30
2018-12-08T14:37:54.630Z,6.30
2018-12-08T14:40:28.713Z,6.30
2018-12-08T14:43:03.515Z,6.20
2018-12-08T14:45:38.539Z,6.20
2018-12-08T14:48:13.363Z,6.20
2018-12-08T14:50:48.168Z,6.30
2018-12-08T14:53:24.067Z,6.30
2018-12-08T14:55:58.073Z,6.30
2018-12-08T14:58:32.110Z,6.30
2018-12-08T15:11:21.601Z,6.40
2018-12-08T15:13:55.684Z,6.50
2018-12-08T15:16:29.789Z,6.40
2018-12-08T15:19:00.529Z,6.50
2018-12-08T15:21:37.261Z,6.50
2018-12-08T15:24:11.169Z,6.50
2018-12-08T15:26:45.321Z,6.50
2018-12-08T15:29:20.158Z,6.50
2018-12-08T15:31:56.051Z,6.50
2018-12-08T15:34:29.989Z,6.50
2018-12-08T15:37:04.045Z,6.50
2018-12-08T15:39:38.221Z,6.50
2018-12-08T15:42:12.195Z,6.40
2018-12-08T15:44:46.918Z,6.40
2018-12-08T15:47:21.034Z,6.30
2018-12-08T15:49:55.809Z,6.30
2018-12-08T15:52:30.740Z,6.30
2018-12-08T15:55:04.813Z,6.30
2018-12-08T15:57:39.537Z,6.30
2018-12-08T16:00:13.628Z,6.30
2018-12-08T16:02:47.659Z,6.30
2018-12-08T16:05:22.297Z,6.30
2018-12-08T16:07:57.150Z,6.30
2018-12-08T16:10:33.005Z,6.30
2018-12-08T16:13:10.672Z,6.40
2018-12-08T16:15:45.632Z,6.40
2018-12-08T16:18:19.736Z,6.30
2018-12-08T16:20:54.793Z,6.40
2018-12-08T16:23:30.797Z,6.40
2018-12-08T16:26:05.537Z,6.40
2018-12-08T16:28:40.151Z,6.50
2018-12-08T16:31:14.265Z,6.50
2018-12-08T16:33:48.275Z,6.50
2018-12-08T16:36:22.315Z,6.60
2018-12-08T16:38:56.438Z,6.50
2018-12-08T16:41:31.586Z,6.50
2018-12-08T16:44:02.148Z,6.50
2018-12-08T16:46:36.982Z,6.40
2018-12-08T16:49:10.904Z,6.40
2018-12-08T16:51:41.130Z,6.30
2018-12-08T16:54:15.756Z,6.20
2018-12-08T16:56:49.999Z,6.10
2018-12-08T16:59:24.049Z,6.00
2018-12-08T17:01:58.958Z,5.90
2018-12-08T17:04:29.586Z,5.80
2018-12-08T17:07:03.693Z,5.70
2018-12-08T17:09:34.549Z,5.70
2018-12-08T17:17:10.178Z,5.80
2018-12-08T17:19:44.450Z,5.80
2018-12-08T17:22:18.759Z,5.80
2018-12-08T17:24:53.467Z,5.80
2018-12-08T17:27:27.693Z,5.90
2018-12-08T17:30:01.870Z,6.00
2018-12-08T17:32:36.944Z,6.00
2018-12-08T17:35:11.501Z,6.00
2018-12-08T17:37:45.666Z,6.10
2018-12-08T17:40:19.651Z,6.10
2018-12-08T17:42:54.473Z,6.30
2018-12-08T17:45:28.388Z,6.20
2018-12-08T17:48:02.335Z,6.30
2018-12-08T17:50:33.149Z,6.20
2018-12-08T17:53:08.925Z,6.20
2018-12-08T17:55:43.635Z,6.20
2018-12-08T17:58:17.754Z,6.20
2018-12-08T18:00:52.629Z,6.20
2018-12-08T18:03:23.386Z,6.20
2018-12-08T18:05:57.325Z,6.20
2018-12-08T18:08:31.275Z,6.20
2018-12-08T18:11:06.114Z,6.30
2018-12-08T18:13:40.399Z,6.30
2018-12-08T18:16:15.141Z,6.30
2018-12-08T18:23:53.621Z,6.40
2018-12-08T18:26:27.642Z,6.50
2018-12-08T18:29:01.674Z,6.50
2018-12-08T18:31:35.649Z,6.60
2018-12-08T18:34:10.514Z,6.60
2018-12-08T18:36:44.437Z,6.70
2018-12-08T18:39:15.158Z,6.60
2018-12-08T18:41:50.071Z,6.80
2018-12-08T18:44:24.811Z,6.60
2018-12-08T18:46:58.945Z,6.50
2018-12-08T18:49:33.116Z,6.50
2018-12-08T18:52:09.061Z,6.40
2018-12-08T18:54:43.884Z,6.50
2018-12-08T18:57:17.913Z,6.50
2018-12-08T18:59:51.850Z,6.50
2018-12-08T19:02:26.949Z,6.50
2018-12-08T19:05:00.878Z,6.50
2018-12-08T19:07:35.013Z,6.60
2018-12-08T19:10:08.876Z,6.50
2018-12-08T19:12:44.920Z,6.50
2018-12-08T19:15:15.897Z,6.50
2018-12-08T19:17:49.810Z,6.50
2018-12-08T19:20:23.637Z,6.50
2018-12-08T19:22:57.821Z,6.40
2018-12-08T19:30:34.094Z,6.40
2018-12-08T19:33:14.483Z,6.40
2018-12-08T19:35:45.062Z,6.40
2018-12-08T19:38:19.853Z,6.50
2018-12-08T19:40:53.822Z,6.50
2018-12-08T19:43:28.685Z,6.50
2018-12-08T19:46:02.662Z,6.50
2018-12-08T19:48:37.458Z,6.60
2018-12-08T19:51:12.322Z,6.60
2018-12-08T19:53:48.174Z,6.70
2018-12-08T19:56:22.219Z,6.70
2018-12-08T19:58:56.921Z,6.70
2018-12-08T20:01:31.043Z,6.70
2018-12-08T20:04:05.251Z,6.80
2018-12-08T20:06:39.478Z,6.80
2018-12-08T20:09:14.242Z,6.90
2018-12-08T20:11:49.221Z,6.90
2018-12-08T20:14:24.049Z,6.90
2018-12-08T20:16:58.273Z,6.90
2018-12-08T20:19:33.081Z,6.80
2018-12-08T20:22:09.461Z,6.90
2018-12-08T20:24:44.274Z,6.80
2018-12-08T20:27:18.188Z,6.80
2018-12-08T20:29:52.205Z,6.90
2018-12-08T20:32:28.381Z,7.00
2018-12-08T20:37:37.366Z,6.90
2018-12-08T20:40:07.553Z,7.00
2018-12-08T20:42:44.325Z,6.90
2018-12-08T20:45:19.147Z,6.80
2018-12-08T20:47:53.057Z,6.80
2018-12-08T20:50:27.837Z,6.80
2018-12-08T20:53:01.792Z,6.70
2018-12-08T20:55:35.734Z,6.70
2018-12-08T20:58:10.638Z,6.70
2018-12-08T21:00:44.589Z,6.60
2018-12-08T21:03:19.318Z,6.50
2018-12-08T21:05:53.280Z,6.40
2018-12-08T21:08:28.025Z,6.40
2018-12-08T21:11:03.389Z,6.40
2018-12-08T21:13:38.342Z,6.40
2018-12-08T21:16:12.298Z,6.30
2018-12-08T21:18:46.287Z,6.30
2018-12-08T21:21:21.187Z,6.30
2018-12-08T21:23:55.171Z,6.20
2018-12-08T21:26:29.517Z,6.20
2018-12-08T21:29:04.399Z,6.20
2018-12-08T21:31:41.162Z,6.20
2018-12-08T21:44:19.641Z,6.30
2018-12-08T21:54:26.707Z,6.30
2018-12-08T21:59:31.580Z,6.40
2018-12-08T22:04:37.394Z,6.50
2018-12-08T22:07:12.421Z,6.50
2018-12-08T22:09:46.584Z,6.50
2018-12-08T22:12:22.121Z,6.50
2018-12-08T22:14:58.538Z,6.60
2018-12-08T22:17:32.480Z,6.60
2018-12-08T22:20:07.417Z,6.70
2018-12-08T22:22:42.105Z,6.70
2018-12-08T22:25:17.078Z,6.70
2018-12-08T22:27:50.978Z,6.70
2018-12-08T22:30:25.114Z,6.70
2018-12-08T22:32:59.075Z,6.70
2018-12-08T22:35:33.890Z,6.70
2018-12-08T22:38:08.606Z,6.70
2018-12-08T22:40:43.465Z,6.80
2018-12-08T22:43:18.588Z,6.90
2018-12-08T22:45:52.925Z,6.90
2018-12-08T22:48:26.849Z,6.80
2018-12-08T22:51:00.777Z,6.90
2018-12-08T22:53:35.762Z,6.80
2018-12-08T22:56:10.512Z,6.90
2018-12-08T22:58:41.429Z,7.00
2018-12-08T23:01:12.302Z,7.00
2018-12-08T23:03:46.257Z,7.10
2018-12-08T23:06:21.110Z,7.00
2018-12-08T23:08:55.219Z,7.00
2018-12-08T23:11:30.089Z,7.00
2018-12-08T23:14:04.705Z,6.90
2018-12-08T23:16:35.543Z,6.90
2018-12-08T23:19:10.362Z,6.90
2018-12-08T23:21:44.441Z,7.00
2018-12-08T23:24:19.298Z,7.10
2018-12-08T23:26:54.109Z,7.10
2018-12-08T23:29:28.141Z,7.10
2018-12-08T23:32:04.120Z,7.20
2018-12-08T23:34:38.046Z,7.10
2018-12-08T23:37:12.177Z,7.10
2018-12-08T23:39:46.073Z,7.20
2018-12-08T23:42:21.806Z,7.10
2018-12-08T23:44:56.550Z,7.20
2018-12-08T23:47:30.506Z,7.20
2018-12-08T23:50:05.120Z,7.10
2018-12-08T23:52:39.450Z,7.20
2018-12-08T23:55:14.325Z,7.20
2018-12-08T23:57:49.114Z,7.20
